createdAt,value
2023-04-09T00:00:29.075Z,0
2023-04-09T00:01:29.077Z,0
2023-04-09T00:02:29.156Z,0
2023-04-09T00:03:29.171Z,0
2023-04-09T00:04:29.111Z,0
2023-04-09T00:05:29.087Z,0
2023-04-09T00:06:29.113Z,0
2023-04-09T00:07:29.087Z,0
2023-04-09T00:08:29.092Z,0
2023-04-09T00:09:29.094Z,0
2023-04-09T00:10:29.087Z,0
2023-04-09T00:11:29.091Z,0
2023-04-09T00:12:29.100Z,0
2023-04-09T00:13:38.355Z,0
2023-04-09T00:14:29.104Z,0
2023-04-09T00:15:31.456Z,0
2023-04-09T00:16:29.142Z,0
2023-04-09T00:17:29.122Z,0
2023-04-09T00:18:29.107Z,0
2023-04-09T00:19:29.126Z,0
2023-04-09T00:20:29.119Z,0
2023-04-09T00:21:29.113Z,0
2023-04-09T00:22:29.142Z,0
2023-04-09T00:23:29.128Z,0
2023-04-09T00:24:29.126Z,0
2023-04-09T00:25:29.121Z,0
2023-04-09T00:26:29.138Z,0
2023-04-09T00:27:29.131Z,0
2023-04-09T00:28:29.129Z,0
2023-04-09T00:29:29.132Z,0
2023-04-09T00:30:29.135Z,0
2023-04-09T00:31:29.180Z,0
2023-04-09T00:32:29.141Z,0
2023-04-09T00:33:29.140Z,0
2023-04-09T00:34:29.143Z,0
2023-04-09T00:35:29.140Z,0
2023-04-09T00:36:29.143Z,0
2023-04-09T00:37:29.141Z,0
2023-04-09T00:38:29.173Z,0
2023-04-09T00:39:29.146Z,0
2023-04-09T00:40:29.156Z,0
2023-04-09T00:41:29.148Z,0
2023-04-09T00:42:29.150Z,0
2023-04-09T00:43:29.153Z,0
2023-04-09T00:44:29.151Z,0
2023-04-09T00:45:29.160Z,0
2023-04-09T00:46:29.145Z,0
2023-04-09T00:47:29.157Z,0
2023-04-09T00:48:29.155Z,0
2023-04-09T00:49:29.156Z,0
2023-04-09T00:50:29.158Z,0
2023-04-09T00:51:29.157Z,0
2023-04-09T00:52:29.160Z,0
2023-04-09T00:53:29.169Z,0
2023-04-09T00:54:29.196Z,0
2023-04-09T00:55:29.176Z,0
2023-04-09T00:56:29.169Z,0
2023-04-09T00:57:29.171Z,0
2023-04-09T00:58:29.175Z,0
2023-04-09T00:59:29.175Z,0
2023-04-09T01:00:29.178Z,0
2023-04-09T01:01:29.217Z,0
2023-04-09T01:02:29.290Z,0
2023-04-09T01:03:29.286Z,0
2023-04-09T01:04:29.184Z,0
2023-04-09T01:05:29.187Z,0
2023-04-09T01:06:29.200Z,0
2023-04-09T01:07:29.188Z,0
2023-04-09T01:08:29.193Z,0
2023-04-09T01:09:29.192Z,0
2023-04-09T01:10:29.222Z,0
2023-04-09T01:11:29.195Z,0
2023-04-09T01:12:29.196Z,0
2023-04-09T01:13:29.198Z,0
2023-04-09T01:14:29.197Z,0
2023-04-09T01:15:29.203Z,0
2023-04-09T01:16:29.256Z,0
2023-04-09T01:17:29.224Z,0
2023-04-09T01:18:29.205Z,0
2023-04-09T01:19:29.206Z,0
2023-04-09T01:20:29.226Z,0
2023-04-09T01:21:29.211Z,0
2023-04-09T01:22:29.212Z,0
2023-04-09T01:23:29.213Z,0
2023-04-09T01:24:29.217Z,0
2023-04-09T01:25:29.222Z,0
2023-04-09T01:26:29.247Z,0
2023-04-09T01:27:29.224Z,0
2023-04-09T01:28:29.224Z,0
2023-04-09T01:29:29.223Z,0
2023-04-09T01:30:29.249Z,0
2023-04-09T01:31:29.234Z,0
2023-04-09T01:32:29.237Z,0
2023-04-09T01:33:29.231Z,0
2023-04-09T01:34:29.229Z,0
2023-04-09T01:35:29.238Z,0
2023-04-09T01:36:29.237Z,0
2023-04-09T01:37:29.239Z,0
2023-04-09T01:38:29.238Z,0
2023-04-09T01:39:29.238Z,0
2023-04-09T01:40:29.244Z,0
2023-04-09T01:41:29.241Z,0
2023-04-09T01:42:29.279Z,0
2023-04-09T01:43:29.247Z,0
2023-04-09T01:44:29.245Z,0
2023-04-09T01:45:29.246Z,0
2023-04-09T01:46:29.303Z,0
2023-04-09T01:47:29.279Z,0
2023-04-09T01:48:29.252Z,0
2023-04-09T01:49:29.253Z,0
2023-04-09T01:50:29.257Z,0
2023-04-09T01:51:29.252Z,0
2023-04-09T01:52:29.256Z,0
2023-04-09T01:53:29.256Z,0
2023-04-09T01:54:29.267Z,0
2023-04-09T01:55:29.260Z,0
2023-04-09T01:56:29.256Z,0
2023-04-09T01:57:29.262Z,0
2023-04-09T01:58:29.284Z,0
2023-04-09T01:59:29.261Z,0
2023-04-09T02:00:29.262Z,0
2023-04-09T02:01:29.281Z,0
2023-04-09T02:02:29.399Z,0
2023-04-09T02:03:29.296Z,0
2023-04-09T02:04:29.267Z,0
2023-04-09T02:05:29.267Z,0
2023-04-09T02:06:29.272Z,0
2023-04-09T02:07:29.275Z,0
2023-04-09T02:08:29.276Z,0
2023-04-09T02:09:29.274Z,0
2023-04-09T02:10:29.279Z,0
2023-04-09T02:11:29.280Z,0
2023-04-09T02:12:29.274Z,0
2023-04-09T02:13:29.282Z,0
2023-04-09T02:14:29.304Z,0
2023-04-09T02:15:29.300Z,0
2023-04-09T02:16:29.282Z,0
2023-04-09T02:17:29.357Z,0
2023-04-09T02:18:29.284Z,0
2023-04-09T02:19:29.283Z,0
2023-04-09T02:20:29.282Z,0
2023-04-09T02:21:29.285Z,0
2023-04-09T02:22:29.285Z,0
2023-04-09T02:23:29.290Z,0
2023-04-09T02:24:29.283Z,0
2023-04-09T02:25:29.289Z,0
2023-04-09T02:26:29.298Z,0
2023-04-09T02:27:29.288Z,0
2023-04-09T02:28:29.290Z,0
2023-04-09T02:29:29.292Z,0
2023-04-09T02:30:29.318Z,0
2023-04-09T02:31:29.349Z,0
2023-04-09T02:32:29.324Z,0
2023-04-09T02:33:29.303Z,0
2023-04-09T02:34:29.306Z,0
2023-04-09T02:35:29.303Z,0
2023-04-09T02:36:29.308Z,0
2023-04-09T02:37:29.306Z,0
2023-04-09T02:38:29.304Z,0
2023-04-09T02:39:29.303Z,0
2023-04-09T02:40:29.303Z,0
2023-04-09T02:41:29.312Z,0
2023-04-09T02:42:29.301Z,0
2023-04-09T02:43:29.305Z,0
2023-04-09T02:44:29.312Z,0
2023-04-09T02:45:29.303Z,0
2023-04-09T02:46:29.350Z,0
2023-04-09T02:47:29.324Z,0
2023-04-09T02:48:29.310Z,0
2023-04-09T02:49:29.309Z,0
2023-04-09T02:50:29.490Z,0
2023-04-09T02:51:29.323Z,0
2023-04-09T02:52:29.313Z,0
2023-04-09T02:53:29.311Z,0
2023-04-09T02:54:29.314Z,0
2023-04-09T02:55:29.314Z,0
2023-04-09T02:56:29.314Z,0
2023-04-09T02:57:30.416Z,0
2023-04-09T02:58:29.312Z,0
2023-04-09T02:59:29.317Z,0
2023-04-09T03:00:29.318Z,0
2023-04-09T03:01:29.331Z,0
2023-04-09T03:02:29.486Z,0
2023-04-09T03:03:29.364Z,0
2023-04-09T03:04:29.322Z,0
2023-04-09T03:05:29.321Z,0
2023-04-09T03:06:29.322Z,0
2023-04-09T03:07:29.329Z,0
2023-04-09T03:08:29.320Z,0
2023-04-09T03:09:29.325Z,0
2023-04-09T03:10:29.330Z,0
2023-04-09T03:11:29.337Z,0
2023-04-09T03:12:29.325Z,0
2023-04-09T03:13:29.326Z,0
2023-04-09T03:14:29.330Z,0
2023-04-09T03:15:29.326Z,0
2023-04-09T03:16:29.333Z,0
2023-04-09T03:17:29.350Z,0
2023-04-09T03:18:29.358Z,0
2023-04-09T03:19:29.344Z,0
2023-04-09T03:20:29.338Z,0
2023-04-09T03:21:29.366Z,0
2023-04-09T03:22:29.336Z,0
2023-04-09T03:23:29.342Z,0
2023-04-09T03:24:29.342Z,0
2023-04-09T03:25:29.344Z,0
2023-04-09T03:26:29.342Z,0
2023-04-09T03:27:29.341Z,0
2023-04-09T03:28:29.340Z,0
2023-04-09T03:29:29.341Z,0
2023-04-09T03:30:29.346Z,0
2023-04-09T03:31:29.395Z,0
2023-04-09T03:32:29.358Z,0
2023-04-09T03:33:29.350Z,0
2023-04-09T03:34:29.374Z,0
2023-04-09T03:35:29.374Z,0
2023-04-09T03:36:29.354Z,0
2023-04-09T03:37:29.349Z,0
2023-04-09T03:38:29.352Z,0
2023-04-09T03:39:29.355Z,0
2023-04-09T03:40:29.349Z,0
2023-04-09T03:41:29.353Z,0
2023-04-09T03:42:29.356Z,0
2023-04-09T03:43:29.362Z,0
2023-04-09T03:44:29.357Z,0
2023-04-09T03:45:29.359Z,0
2023-04-09T03:46:29.365Z,0
2023-04-09T03:47:29.366Z,0
2023-04-09T03:48:29.356Z,0
2023-04-09T03:49:29.360Z,0
2023-04-09T03:50:29.387Z,0
2023-04-09T03:51:29.366Z,0
2023-04-09T03:52:29.360Z,0
2023-04-09T03:53:29.357Z,0
2023-04-09T03:54:29.355Z,0
2023-04-09T03:55:29.358Z,0
2023-04-09T03:56:29.375Z,0
2023-04-09T03:57:29.359Z,0
2023-04-09T03:58:29.362Z,0
2023-04-09T03:59:29.357Z,0
2023-04-09T04:00:29.362Z,0
2023-04-09T04:01:29.359Z,0
2023-04-09T04:02:29.401Z,0
2023-04-09T04:03:29.551Z,0
2023-04-09T04:04:29.478Z,0
2023-04-09T04:05:29.366Z,0
2023-04-09T04:06:29.380Z,0
2023-04-09T04:07:29.362Z,0
2023-04-09T04:08:29.375Z,0
2023-04-09T04:09:29.355Z,0
2023-04-09T04:10:29.360Z,0
2023-04-09T04:11:29.353Z,0
2023-04-09T04:12:29.358Z,0
2023-04-09T04:13:29.379Z,0
2023-04-09T04:14:29.358Z,0
2023-04-09T04:15:29.361Z,0
2023-04-09T04:16:29.424Z,0
2023-04-09T04:17:29.379Z,0
2023-04-09T04:18:29.361Z,0
2023-04-09T04:19:29.361Z,2
2023-04-09T04:20:29.369Z,2
2023-04-09T04:21:29.370Z,2
2023-04-09T04:22:29.393Z,2
2023-04-09T04:23:29.373Z,2
2023-04-09T04:24:29.377Z,4
2023-04-09T04:25:29.381Z,4
2023-04-09T04:26:29.382Z,4
2023-04-09T04:27:29.382Z,4
2023-04-09T04:28:29.382Z,4
2023-04-09T04:29:29.387Z,7
2023-04-09T04:30:29.386Z,7
2023-04-09T04:31:29.404Z,7
2023-04-09T04:32:29.408Z,7
2023-04-09T04:33:29.391Z,7
2023-04-09T04:34:29.389Z,13
2023-04-09T04:35:29.410Z,13
2023-04-09T04:36:29.391Z,13
2023-04-09T04:37:29.396Z,13
2023-04-09T04:38:29.416Z,13
2023-04-09T04:39:29.393Z,19
2023-04-09T04:40:29.393Z,19
2023-04-09T04:41:29.400Z,19
2023-04-09T04:42:29.397Z,19
2023-04-09T04:43:29.395Z,19
2023-04-09T04:44:29.397Z,27
2023-04-09T04:45:29.412Z,27
2023-04-09T04:46:29.394Z,27
2023-04-09T04:47:29.506Z,27
2023-04-09T04:48:29.398Z,27
2023-04-09T04:49:29.403Z,34
2023-04-09T04:50:29.406Z,36
2023-04-09T04:51:29.406Z,36
2023-04-09T04:52:29.407Z,36
2023-04-09T04:53:29.414Z,36
2023-04-09T04:54:29.431Z,36
2023-04-09T04:55:29.410Z,45
2023-04-09T04:56:29.407Z,47
2023-04-09T04:57:29.413Z,93
2023-04-09T04:58:29.412Z,50
2023-04-09T04:59:29.413Z,50
2023-04-09T05:00:29.411Z,50
2023-04-09T05:01:29.431Z,50
2023-04-09T05:02:29.535Z,50
2023-04-09T05:03:29.441Z,65
2023-04-09T05:04:29.417Z,65
2023-04-09T05:05:29.422Z,65
2023-04-09T05:06:29.423Z,65
2023-04-09T05:07:29.426Z,65
2023-04-09T05:08:29.436Z,97
2023-04-09T05:09:29.425Z,97
2023-04-09T05:10:29.454Z,97
2023-04-09T05:11:29.427Z,97
2023-04-09T05:12:29.431Z,121
2023-04-09T05:13:29.433Z,121
2023-04-09T05:14:29.437Z,121
2023-04-09T05:15:29.439Z,121
2023-04-09T05:16:29.480Z,121
2023-04-09T05:17:29.456Z,160
2023-04-09T05:18:29.442Z,160
2023-04-09T05:19:29.446Z,160
2023-04-09T05:20:29.451Z,160
2023-04-09T05:21:29.449Z,160
2023-04-09T05:22:29.450Z,213
2023-04-09T05:23:29.456Z,213
2023-04-09T05:24:29.457Z,213
2023-04-09T05:25:29.469Z,213
2023-04-09T05:26:29.482Z,213
2023-04-09T05:27:29.450Z,264
2023-04-09T05:28:29.459Z,264
2023-04-09T05:29:29.468Z,264
2023-04-09T05:30:29.467Z,264
2023-04-09T05:31:29.462Z,264
2023-04-09T05:32:29.487Z,347
2023-04-09T05:33:29.470Z,347
2023-04-09T05:34:46.476Z,347
2023-04-09T05:36:40.203Z,347
2023-04-09T05:37:40.219Z,390
2023-04-09T05:38:40.201Z,390
2023-04-09T05:39:40.202Z,390
2023-04-09T05:40:40.204Z,390
2023-04-09T05:41:40.230Z,438
2023-04-09T05:42:40.224Z,438
2023-04-09T05:43:40.204Z,438
2023-04-09T05:44:40.205Z,438
2023-04-09T05:45:40.266Z,438
2023-04-09T05:46:40.208Z,477
2023-04-09T05:47:40.210Z,477
2023-04-09T05:48:40.206Z,477
2023-04-09T05:49:40.210Z,477
2023-04-09T05:50:51.411Z,477
2023-04-09T05:51:40.215Z,514
2023-04-09T05:52:40.210Z,528
2023-04-09T05:53:40.220Z,528
2023-04-09T05:54:40.213Z,528
2023-04-09T05:55:40.214Z,528
2023-04-09T05:56:40.213Z,528
2023-04-09T05:57:40.234Z,573
2023-04-09T05:58:40.212Z,573
2023-04-09T05:59:40.214Z,573
2023-04-09T06:00:40.210Z,573
2023-04-09T06:01:40.237Z,573
2023-04-09T06:02:40.277Z,593
2023-04-09T06:03:40.318Z,593
2023-04-09T06:04:40.250Z,593
2023-04-09T06:05:40.218Z,593
2023-04-09T06:06:40.222Z,593
2023-04-09T06:07:40.212Z,637
2023-04-09T06:08:40.212Z,637
2023-04-09T06:09:40.216Z,637
2023-04-09T06:10:41.413Z,637
2023-04-09T06:11:40.212Z,637
2023-04-09T06:12:40.214Z,690
2023-04-09T06:13:40.241Z,690
2023-04-09T06:14:40.217Z,690
2023-04-09T06:15:40.295Z,690
2023-04-09T06:16:40.215Z,690
2023-04-09T06:17:40.230Z,716
2023-04-09T06:18:40.212Z,716
2023-04-09T06:19:40.218Z,716
2023-04-09T06:20:40.218Z,716
2023-04-09T06:21:40.223Z,716
2023-04-09T06:22:40.219Z,787
2023-04-09T06:23:40.222Z,787
2023-04-09T06:24:40.221Z,787
2023-04-09T06:25:40.218Z,787
2023-04-09T06:26:40.224Z,787
2023-04-09T06:27:40.222Z,818
2023-04-09T06:28:40.234Z,818
2023-04-09T06:29:40.245Z,818
2023-04-09T06:30:40.217Z,818
2023-04-09T06:31:40.302Z,818
2023-04-09T06:32:47.212Z,914
2023-04-09T06:33:40.222Z,914
2023-04-09T06:34:40.222Z,914
2023-04-09T06:35:40.268Z,914
2023-04-09T06:36:40.231Z,914
2023-04-09T06:37:40.225Z,1022
2023-04-09T06:38:40.220Z,1022
2023-04-09T06:39:42.530Z,1022
2023-04-09T06:40:40.218Z,1022
2023-04-09T06:41:40.218Z,1022
2023-04-09T06:42:40.228Z,1089
2023-04-09T06:43:40.220Z,1089
2023-04-09T06:44:40.226Z,1089
2023-04-09T06:45:41.105Z,1089
2023-04-09T06:46:40.244Z,1089
2023-04-09T06:47:40.289Z,1215
2023-04-09T06:48:40.402Z,1215
2023-04-09T06:49:40.235Z,1215
2023-04-09T06:50:40.231Z,1215
2023-04-09T06:51:40.228Z,1215
2023-04-09T06:52:40.224Z,1149
2023-04-09T06:53:40.241Z,1149
2023-04-09T06:54:40.233Z,1149
2023-04-09T06:55:40.233Z,1149
2023-04-09T06:56:40.226Z,1149
2023-04-09T06:57:40.230Z,1154
2023-04-09T06:58:40.229Z,1154
2023-04-09T06:59:40.232Z,1154
2023-04-09T07:00:40.230Z,1154
2023-04-09T07:01:40.412Z,1154
2023-04-09T07:02:40.421Z,1126
2023-04-09T07:03:40.362Z,1126
2023-04-09T07:04:40.237Z,1126
2023-04-09T07:05:40.245Z,1126
2023-04-09T07:06:40.234Z,1126
2023-04-09T07:07:40.232Z,1064
2023-04-09T07:08:40.245Z,1064
2023-04-09T07:09:40.235Z,1064
2023-04-09T07:10:40.251Z,1064
2023-04-09T07:11:40.240Z,1064
2023-04-09T07:12:40.244Z,1157
2023-04-09T07:13:40.237Z,1157
2023-04-09T07:14:40.235Z,1157
2023-04-09T07:15:40.680Z,1157
2023-04-09T07:16:40.428Z,1157
2023-04-09T07:17:40.275Z,1095
2023-04-09T07:18:40.270Z,1095
2023-04-09T07:19:40.249Z,1095
2023-04-09T07:20:40.241Z,1095
2023-04-09T07:21:40.240Z,1095
2023-04-09T07:22:40.241Z,991
2023-04-09T07:23:40.240Z,991
2023-04-09T07:24:40.253Z,991
2023-04-09T07:25:40.243Z,991
2023-04-09T07:26:40.243Z,991
2023-04-09T07:27:40.243Z,933
2023-04-09T07:28:40.245Z,933
2023-04-09T07:29:40.244Z,933
2023-04-09T07:30:40.243Z,933
2023-04-09T07:31:40.259Z,933
2023-04-09T07:32:40.259Z,911
2023-04-09T07:33:40.268Z,911
2023-04-09T07:34:40.240Z,911
2023-04-09T07:35:40.257Z,911
2023-04-09T07:36:40.246Z,911
2023-04-09T07:37:40.244Z,916
2023-04-09T07:38:40.244Z,916
2023-04-09T07:39:40.249Z,916
2023-04-09T07:40:40.243Z,916
2023-04-09T07:41:40.252Z,916
2023-04-09T07:42:40.253Z,1053
2023-04-09T07:43:40.245Z,1053
2023-04-09T07:44:40.247Z,1053
2023-04-09T07:45:40.244Z,1053
2023-04-09T07:46:40.248Z,1053
2023-04-09T07:47:40.283Z,1249
2023-04-09T07:48:40.245Z,1290
2023-04-09T07:49:40.287Z,1241
2023-04-09T07:50:40.239Z,1237
2023-04-09T07:51:40.248Z,1247
2023-04-09T07:52:40.247Z,1247
2023-04-09T07:53:40.248Z,1247
2023-04-09T07:54:40.254Z,1247
2023-04-09T07:55:40.248Z,1247
2023-04-09T07:56:40.246Z,1404
2023-04-09T07:57:40.249Z,1404
2023-04-09T07:58:40.246Z,1404
2023-04-09T07:59:40.250Z,1404
2023-04-09T08:00:40.248Z,1404
2023-04-09T08:01:40.296Z,1603
2023-04-09T08:02:40.341Z,1603
2023-04-09T08:03:40.360Z,1603
2023-04-09T08:04:40.316Z,1603
2023-04-09T08:05:40.283Z,1603
2023-04-09T08:06:40.254Z,1706
2023-04-09T08:07:40.252Z,1706
2023-04-09T08:08:40.261Z,1706
2023-04-09T08:09:40.259Z,1706
2023-04-09T08:10:40.251Z,1706
2023-04-09T08:11:40.263Z,1813
2023-04-09T08:12:40.262Z,1813
2023-04-09T08:13:40.254Z,1813
2023-04-09T08:14:40.260Z,1813
2023-04-09T08:15:40.251Z,1813
2023-04-09T08:16:40.284Z,2613
2023-04-09T08:17:40.286Z,2613
2023-04-09T08:18:40.257Z,3737
2023-04-09T08:19:41.876Z,6682
2023-04-09T08:20:40.254Z,5378
2023-04-09T08:21:40.294Z,5091
2023-04-09T08:22:40.254Z,5639
2023-04-09T08:23:40.256Z,7084
2023-04-09T08:24:40.268Z,5947
2023-04-09T08:25:40.261Z,4927
2023-04-09T08:26:40.257Z,6885
2023-04-09T08:27:40.251Z,6976
2023-04-09T08:28:40.263Z,3602
2023-04-09T08:29:40.264Z,3314
2023-04-09T08:30:40.261Z,2667
2023-04-09T08:31:40.279Z,2539
2023-04-09T08:32:40.298Z,2409
2023-04-09T08:33:40.259Z,2322
2023-04-09T08:34:40.262Z,2284
2023-04-09T08:35:40.259Z,2291
2023-04-09T08:36:40.327Z,2294
2023-04-09T08:37:40.290Z,2331
2023-04-09T08:38:40.263Z,2376
2023-04-09T08:39:40.261Z,2376
2023-04-09T08:40:40.267Z,2539
2023-04-09T08:41:40.263Z,2511
2023-04-09T08:42:40.269Z,2511
2023-04-09T08:43:53.079Z,2511
2023-04-09T08:44:40.263Z,2511
2023-04-09T08:45:40.283Z,2511
2023-04-09T08:46:40.270Z,2383
2023-04-09T08:47:40.357Z,2422
2023-04-09T08:48:40.285Z,2422
2023-04-09T08:49:40.269Z,2422
2023-04-09T08:50:40.267Z,2422
2023-04-09T08:51:40.268Z,2422
2023-04-09T08:52:40.269Z,2467
2023-04-09T08:53:40.302Z,2467
2023-04-09T08:54:40.286Z,2467
2023-04-09T08:55:40.276Z,2467
2023-04-09T08:56:40.268Z,2467
2023-04-09T08:57:40.266Z,2506
2023-04-09T08:58:40.269Z,2748
2023-04-09T08:59:40.271Z,2893
2023-04-09T09:00:40.274Z,3156
2023-04-09T09:01:40.356Z,3460
2023-04-09T09:02:40.322Z,2881
2023-04-09T09:03:40.352Z,2881
2023-04-09T09:04:40.272Z,2881
2023-04-09T09:05:40.270Z,2881
2023-04-09T09:06:40.270Z,2881
2023-04-09T09:07:40.274Z,2858
2023-04-09T09:08:40.266Z,2860
2023-04-09T09:09:40.300Z,3057
2023-04-09T09:10:40.268Z,3057
2023-04-09T09:11:40.276Z,3592
2023-04-09T09:12:40.278Z,3652
2023-04-09T09:13:40.279Z,3652
2023-04-09T09:14:40.273Z,3652
2023-04-09T09:15:40.265Z,3652
2023-04-09T09:16:40.399Z,4322
2023-04-09T09:17:40.333Z,4322
2023-04-09T09:18:40.269Z,3746
2023-04-09T09:19:40.273Z,3746
2023-04-09T09:20:40.271Z,5598
2023-04-09T09:21:40.278Z,7071
2023-04-09T09:22:40.275Z,6074
2023-04-09T09:23:40.272Z,6748
2023-04-09T09:24:40.273Z,5399
2023-04-09T09:25:40.307Z,5484
2023-04-09T09:26:40.276Z,6741
2023-04-09T09:27:40.296Z,7408
2023-04-09T09:28:40.275Z,7468
2023-04-09T09:29:40.278Z,7825
2023-04-09T09:30:40.290Z,8039
2023-04-09T09:31:40.275Z,8179
2023-04-09T09:32:40.295Z,8175
2023-04-09T09:33:40.283Z,8020
2023-04-09T09:34:40.278Z,6087
2023-04-09T09:35:40.299Z,6240
2023-04-09T09:36:40.282Z,5458
2023-04-09T09:37:40.280Z,4041
2023-04-09T09:38:40.277Z,4379
2023-04-09T09:39:40.287Z,4548
2023-04-09T09:40:40.279Z,4054
2023-04-09T09:41:40.311Z,3267
2023-04-09T09:42:40.283Z,3135
2023-04-09T09:43:40.285Z,3140
2023-04-09T09:44:40.280Z,3021
2023-04-09T09:45:40.287Z,2865
2023-04-09T09:46:40.322Z,2785
2023-04-09T09:47:40.313Z,2783
2023-04-09T09:48:40.284Z,2783
2023-04-09T09:49:40.293Z,2912
2023-04-09T09:50:40.287Z,2912
2023-04-09T09:51:40.290Z,3087
2023-04-09T09:52:40.292Z,3184
2023-04-09T09:53:40.289Z,3162
2023-04-09T09:54:40.290Z,3162
2023-04-09T09:55:40.291Z,3366
2023-04-09T09:56:40.287Z,3864
2023-04-09T09:57:40.321Z,4484
2023-04-09T09:58:40.305Z,4802
2023-04-09T09:59:40.293Z,4235
2023-04-09T10:00:40.290Z,4664
2023-04-09T10:01:40.359Z,3673
2023-04-09T10:02:40.352Z,3745
2023-04-09T10:03:40.296Z,3669
2023-04-09T10:04:40.329Z,3686
2023-04-09T10:05:40.360Z,3745
2023-04-09T10:06:40.295Z,3689
2023-04-09T10:07:40.314Z,3689
2023-04-09T10:08:40.303Z,3689
2023-04-09T10:09:40.301Z,3689
2023-04-09T10:10:40.295Z,3689
2023-04-09T10:11:40.299Z,4255
2023-04-09T10:12:40.294Z,4695
2023-04-09T10:13:40.325Z,4756
2023-04-09T10:14:40.303Z,4730
2023-04-09T10:15:40.330Z,5196
2023-04-09T10:16:40.302Z,5196
2023-04-09T10:17:40.295Z,4805
2023-04-09T10:18:40.297Z,4634
2023-04-09T10:19:40.317Z,4646
2023-04-09T10:20:40.300Z,4768
2023-04-09T10:21:42.273Z,4768
2023-04-09T10:22:40.302Z,4243
2023-04-09T10:23:40.301Z,4243
2023-04-09T10:24:40.299Z,3555
2023-04-09T10:25:40.299Z,3516
2023-04-09T10:26:40.307Z,3192
2023-04-09T10:27:40.303Z,2962
2023-04-09T10:28:40.313Z,2769
2023-04-09T10:29:40.329Z,2631
2023-04-09T10:30:40.302Z,2571
2023-04-09T10:31:40.331Z,2529
2023-04-09T10:32:40.320Z,2529
2023-04-09T10:33:40.306Z,2618
2023-04-09T10:34:40.302Z,2596
2023-04-09T10:35:40.332Z,2596
2023-04-09T10:36:40.307Z,2720
2023-04-09T10:37:40.305Z,2953
2023-04-09T10:38:40.303Z,3164
2023-04-09T10:39:40.308Z,3195
2023-04-09T10:40:40.304Z,3038
2023-04-09T10:41:40.308Z,3098
2023-04-09T10:42:40.308Z,3032
2023-04-09T10:43:40.311Z,3030
2023-04-09T10:44:40.311Z,3035
2023-04-09T10:45:40.335Z,2984
2023-04-09T10:46:40.327Z,2984
2023-04-09T10:47:40.383Z,2984
2023-04-09T10:48:40.309Z,2984
2023-04-09T10:49:40.310Z,2762
2023-04-09T10:50:40.312Z,2762
2023-04-09T10:51:40.338Z,2807
2023-04-09T10:52:40.319Z,2816
2023-04-09T10:53:40.315Z,2785
2023-04-09T10:54:40.316Z,2785
2023-04-09T10:55:40.318Z,2785
2023-04-09T10:56:40.320Z,2404
2023-04-09T10:57:40.320Z,2404
2023-04-09T10:58:40.316Z,2404
2023-04-09T10:59:40.320Z,2404
2023-04-09T11:00:40.326Z,2404
2023-04-09T11:01:40.365Z,2404
2023-04-09T11:02:40.556Z,2404
2023-04-09T11:03:40.335Z,2404
2023-04-09T11:04:40.352Z,2404
2023-04-09T11:05:40.353Z,3135
2023-04-09T11:06:40.321Z,3135
2023-04-09T11:07:40.340Z,2824
2023-04-09T11:08:40.323Z,2824
2023-04-09T11:09:40.324Z,2905
2023-04-09T11:10:40.324Z,2941
2023-04-09T11:11:40.327Z,3196
2023-04-09T11:12:40.330Z,3451
2023-04-09T11:13:40.327Z,3032
2023-04-09T11:14:40.330Z,2976
2023-04-09T11:15:40.327Z,2976
2023-04-09T11:16:40.367Z,2976
2023-04-09T11:17:40.412Z,2976
2023-04-09T11:18:40.324Z,2805
2023-04-09T11:19:40.324Z,2832
2023-04-09T11:20:40.331Z,2832
2023-04-09T11:21:40.326Z,2832
2023-04-09T11:22:40.322Z,2814
2023-04-09T11:23:40.321Z,2811
2023-04-09T11:24:40.325Z,2822
2023-04-09T11:25:40.329Z,2822
2023-04-09T11:26:40.347Z,2822
2023-04-09T11:27:40.326Z,2822
2023-04-09T11:28:40.327Z,2736
2023-04-09T11:29:40.327Z,2736
2023-04-09T11:30:40.332Z,2736
2023-04-09T11:31:40.362Z,3211
2023-04-09T11:32:40.359Z,3332
2023-04-09T11:33:40.353Z,3378
2023-04-09T11:34:40.330Z,3858
2023-04-09T11:35:40.340Z,4372
2023-04-09T11:36:40.329Z,3826
2023-04-09T11:37:40.327Z,3563
2023-04-09T11:38:40.330Z,3401
2023-04-09T11:39:40.330Z,5037
2023-04-09T11:40:40.332Z,3921
2023-04-09T11:41:40.332Z,4028
2023-04-09T11:42:40.329Z,3289
2023-04-09T11:43:40.329Z,3249
2023-04-09T11:44:40.335Z,2642
2023-04-09T11:45:40.336Z,2417
2023-04-09T11:46:40.351Z,2222
2023-04-09T11:47:40.363Z,2173
2023-04-09T11:48:40.330Z,2183
2023-04-09T11:49:40.359Z,1976
2023-04-09T11:50:40.334Z,1907
2023-04-09T11:51:40.330Z,1904
2023-04-09T11:52:40.356Z,1700
2023-04-09T11:53:40.337Z,1526
2023-04-09T11:54:40.335Z,1400
2023-04-09T11:55:40.332Z,1316
2023-04-09T11:56:40.336Z,1258
2023-04-09T11:57:40.336Z,1219
2023-04-09T11:58:40.340Z,1204
2023-04-09T11:59:40.337Z,1213
2023-04-09T12:00:40.337Z,1292
2023-04-09T12:01:40.401Z,1344
2023-04-09T12:02:40.450Z,1349
2023-04-09T12:03:40.420Z,1371
2023-04-09T12:04:40.381Z,1377
2023-04-09T12:05:42.175Z,1407
2023-04-09T12:06:40.343Z,1364
2023-04-09T12:07:42.298Z,1405
2023-04-09T12:08:40.340Z,1457
2023-04-09T12:09:40.345Z,1508
2023-04-09T12:10:40.345Z,1575
2023-04-09T12:11:40.344Z,1687
2023-04-09T12:12:40.341Z,1737
2023-04-09T12:13:40.344Z,1725
2023-04-09T12:14:40.343Z,1734
2023-04-09T12:15:40.342Z,1747
2023-04-09T12:16:40.369Z,1786
2023-04-09T12:17:40.354Z,1819
2023-04-09T12:18:40.343Z,1842
2023-04-09T12:19:40.354Z,1979
2023-04-09T12:20:40.360Z,2090
2023-04-09T12:21:40.371Z,2188
2023-04-09T12:22:40.347Z,2363
2023-04-09T12:23:40.350Z,2471
2023-04-09T12:24:40.346Z,2607
2023-04-09T12:25:40.356Z,2843
2023-04-09T12:26:40.361Z,3054
2023-04-09T12:27:40.357Z,3207
2023-04-09T12:28:40.352Z,3112
2023-04-09T12:29:40.385Z,3115
2023-04-09T12:30:40.358Z,3211
2023-04-09T12:31:40.419Z,3382
2023-04-09T12:32:40.367Z,3503
2023-04-09T12:33:40.420Z,3942
2023-04-09T12:34:40.354Z,4484
2023-04-09T12:35:40.358Z,3878
2023-04-09T12:36:40.359Z,4156
2023-04-09T12:37:40.379Z,4817
2023-04-09T12:38:40.353Z,4828
2023-04-09T12:39:40.353Z,4547
2023-04-09T12:40:40.364Z,4063
2023-04-09T12:41:40.357Z,5038
2023-04-09T12:42:40.356Z,4632
2023-04-09T12:43:40.357Z,4078
2023-04-09T12:44:40.354Z,5183
2023-04-09T12:45:40.367Z,3669
2023-04-09T12:46:40.359Z,3568
2023-04-09T12:47:40.375Z,3638
2023-04-09T12:48:40.360Z,3376
2023-04-09T12:49:42.257Z,4280
2023-04-09T12:50:40.360Z,4358
2023-04-09T12:51:40.357Z,4514
2023-04-09T12:52:40.373Z,4077
2023-04-09T12:53:40.382Z,3782
2023-04-09T12:54:40.369Z,3943
2023-04-09T12:55:42.278Z,3542
2023-04-09T12:56:40.359Z,4394
2023-04-09T12:57:40.360Z,4762
2023-04-09T12:58:40.364Z,3011
2023-04-09T12:59:40.363Z,2827
2023-04-09T13:00:40.364Z,2841
2023-04-09T13:01:42.081Z,3402
2023-04-09T13:02:40.442Z,2846
2023-04-09T13:03:40.530Z,2848
2023-04-09T13:04:40.385Z,2898
2023-04-09T13:05:40.373Z,2731
2023-04-09T13:06:40.376Z,2647
2023-04-09T13:07:42.330Z,2621
2023-04-09T13:08:40.375Z,2662
2023-04-09T13:09:40.395Z,2919
2023-04-09T13:10:40.369Z,2757
2023-04-09T13:11:40.369Z,2480
2023-04-09T13:12:40.378Z,2387
2023-04-09T13:13:42.170Z,2184
2023-04-09T13:14:40.379Z,2083
2023-04-09T13:15:40.374Z,2073
2023-04-09T13:16:40.427Z,2082
2023-04-09T13:17:40.391Z,2080
2023-04-09T13:18:40.378Z,2069
2023-04-09T13:19:42.540Z,2089
2023-04-09T13:20:40.380Z,2144
2023-04-09T13:21:40.378Z,2192
2023-04-09T13:22:40.378Z,2204
2023-04-09T13:23:40.376Z,2233
2023-04-09T13:24:40.374Z,2248
2023-04-09T13:25:40.408Z,2248
2023-04-09T13:26:40.380Z,2248
2023-04-09T13:27:40.379Z,2248
2023-04-09T13:28:40.374Z,2116
2023-04-09T13:29:40.383Z,2124
2023-04-09T13:30:40.429Z,2276
2023-04-09T13:31:40.383Z,2613
2023-04-09T13:32:40.385Z,2514
2023-04-09T13:33:40.381Z,2527
2023-04-09T13:34:40.380Z,2607
2023-04-09T13:35:40.385Z,2708
2023-04-09T13:36:40.386Z,3000
2023-04-09T13:37:40.386Z,3122
2023-04-09T13:38:40.411Z,4754
2023-04-09T13:39:40.388Z,4754
2023-04-09T13:40:40.383Z,4239
2023-04-09T13:41:40.409Z,3933
2023-04-09T13:42:40.388Z,4258
2023-04-09T13:43:40.381Z,3773
2023-04-09T13:44:40.385Z,4435
2023-04-09T13:45:40.389Z,6433
2023-04-09T13:46:40.420Z,3252
2023-04-09T13:47:40.386Z,3037
2023-04-09T13:48:40.386Z,3099
2023-04-09T13:49:40.386Z,3853
2023-04-09T13:50:40.391Z,3853
2023-04-09T13:51:40.389Z,4472
2023-04-09T13:52:40.392Z,6855